Weather at Ricardo Detomasi Airport

Public forecast

Using degrees Celsius for public forecast. Weather courtesy of forecast.io.

Closest aviation weather report (METAR) to Ricardo Detomasi Airport

Report is more than 2 hours old.

Closest report is Colonia Laguna de Los Patos International Airport, 74.1 nm (137.2 km) SSE.

2024/06/21 22:00 (retrieved 3 hours ago)

SUCA 212200Z 01005KT CAVOK 19/18 Q1005

Closest aviation forecast (TAF) to Ricardo Detomasi Airport

Forecast is more than 6 hours old.

Closest forecast is Rubem Berta Airport, 214.8 nm (397.8 km) NNE.

2024/06/21 18:00 (retrieved 7 hours ago)

TAF SBUG 211600Z 2118/2206 03014KT 9999 SCT018 TX23/2118Z TN19/2205Z PROB40 TEMPO 2118/2122 TS BKN010 FEW045CB RMK PFR